sensor_id;sensor_type;location;lat;lon;timestamp;P1;durP1;ratioP1;P2;durP2;ratioP2
21503;SDS011;10913;51.992;9.228;2023-04-28T00:00:48;5.70;;;4.07;;
21503;SDS011;10913;51.992;9.228;2023-04-28T00:03:14;4.93;;;3.97;;
21503;SDS011;10913;51.992;9.228;2023-04-28T00:05:43;5.15;;;3.55;;
21503;SDS011;10913;51.992;9.228;2023-04-28T00:08:09;5.95;;;4.00;;
21503;SDS011;10913;51.992;9.228;2023-04-28T00:10:35;6.93;;;3.90;;
21503;SDS011;10913;51.992;9.228;2023-04-28T00:13:02;5.47;;;3.50;;
21503;SDS011;10913;51.992;9.228;2023-04-28T00:15:29;4.22;;;3.47;;
21503;SDS011;10913;51.992;9.228;2023-04-28T00:17:54;5.88;;;3.70;;
21503;SDS011;10913;51.992;9.228;2023-04-28T00:20:20;5.60;;;3.95;;
21503;SDS011;10913;51.992;9.228;2023-04-28T00:22:45;5.32;;;4.22;;
21503;SDS011;10913;51.992;9.228;2023-04-28T00:25:11;5.43;;;3.80;;
21503;SDS011;10913;51.992;9.228;2023-04-28T00:27:36;5.32;;;3.80;;
21503;SDS011;10913;51.992;9.228;2023-04-28T00:30:01;7.38;;;4.00;;
21503;SDS011;10913;51.992;9.228;2023-04-28T00:32:27;5.20;;;3.70;;
21503;SDS011;10913;51.992;9.228;2023-04-28T00:34:53;5.50;;;3.70;;
21503;SDS011;10913;51.992;9.228;2023-04-28T00:37:18;5.40;;;3.65;;
21503;SDS011;10913;51.992;9.228;2023-04-28T00:39:44;5.20;;;3.70;;
21503;SDS011;10913;51.992;9.228;2023-04-28T00:42:11;6.07;;;3.70;;
21503;SDS011;10913;51.992;9.228;2023-04-28T00:44:39;5.15;;;3.70;;
21503;SDS011;10913;51.992;9.228;2023-04-28T00:47:05;4.90;;;3.67;;
21503;SDS011;10913;51.992;9.228;2023-04-28T00:49:32;4.38;;;3.70;;
21503;SDS011;10913;51.992;9.228;2023-04-28T00:51:59;5.65;;;3.63;;
21503;SDS011;10913;51.992;9.228;2023-04-28T00:54:29;4.80;;;3.35;;
21503;SDS011;10913;51.992;9.228;2023-04-28T00:56:55;4.38;;;3.40;;
21503;SDS011;10913;51.992;9.228;2023-04-28T00:59:21;4.05;;;3.55;;
21503;SDS011;10913;51.992;9.228;2023-04-28T01:01:46;4.85;;;3.78;;
21503;SDS011;10913;51.992;9.228;2023-04-28T01:04:12;5.80;;;3.25;;
21503;SDS011;10913;51.992;9.228;2023-04-28T01:06:38;4.78;;;3.30;;
21503;SDS011;10913;51.992;9.228;2023-04-28T01:09:06;6.38;;;3.63;;
21503;SDS011;10913;51.992;9.228;2023-04-28T01:11:31;3.80;;;3.30;;
21503;SDS011;10913;51.992;9.228;2023-04-28T01:13:56;5.15;;;3.60;;
21503;SDS011;10913;51.992;9.228;2023-04-28T01:16:23;4.40;;;3.60;;
21503;SDS011;10913;51.992;9.228;2023-04-28T01:18:50;3.85;;;3.40;;
21503;SDS011;10913;51.992;9.228;2023-04-28T01:21:24;4.68;;;3.58;;
21503;SDS011;10913;51.992;9.228;2023-04-28T01:23:55;5.45;;;3.33;;
21503;SDS011;10913;51.992;9.228;2023-04-28T01:26:24;4.95;;;3.97;;
21503;SDS011;10913;51.992;9.228;2023-04-28T01:28:49;4.20;;;3.50;;
21503;SDS011;10913;51.992;9.228;2023-04-28T01:31:14;6.63;;;3.60;;
21503;SDS011;10913;51.992;9.228;2023-04-28T01:33:40;4.40;;;3.67;;
21503;SDS011;10913;51.992;9.228;2023-04-28T01:36:06;5.25;;;3.83;;
21503;SDS011;10913;51.992;9.228;2023-04-28T01:38:31;3.97;;;3.10;;
21503;SDS011;10913;51.992;9.228;2023-04-28T01:40:57;4.95;;;3.80;;
21503;SDS011;10913;51.992;9.228;2023-04-28T01:43:23;6.38;;;4.00;;
21503;SDS011;10913;51.992;9.228;2023-04-28T01:45:48;5.32;;;3.78;;
21503;SDS011;10913;51.992;9.228;2023-04-28T01:48:14;5.63;;;3.95;;
21503;SDS011;10913;51.992;9.228;2023-04-28T01:50:39;4.88;;;3.88;;
21503;SDS011;10913;51.992;9.228;2023-04-28T01:53:05;5.35;;;3.92;;
21503;SDS011;10913;51.992;9.228;2023-04-28T01:55:30;5.88;;;3.65;;
21503;SDS011;10913;51.992;9.228;2023-04-28T01:57:55;5.88;;;3.70;;
21503;SDS011;10913;51.992;9.228;2023-04-28T02:00:22;4.30;;;3.78;;
21503;SDS011;10913;51.992;9.228;2023-04-28T02:02:47;5.57;;;3.97;;
21503;SDS011;10913;51.992;9.228;2023-04-28T02:05:13;4.38;;;3.90;;
21503;SDS011;10913;51.992;9.228;2023-04-28T02:07:38;4.95;;;4.07;;
21503;SDS011;10913;51.992;9.228;2023-04-28T02:10:04;5.97;;;3.95;;
21503;SDS011;10913;51.992;9.228;2023-04-28T02:12:29;6.13;;;4.32;;
21503;SDS011;10913;51.992;9.228;2023-04-28T02:14:55;5.30;;;4.53;;
21503;SDS011;10913;51.992;9.228;2023-04-28T02:17:20;5.18;;;4.50;;
21503;SDS011;10913;51.992;9.228;2023-04-28T02:19:46;6.45;;;4.13;;
21503;SDS011;10913;51.992;9.228;2023-04-28T02:22:11;5.28;;;3.85;;
21503;SDS011;10913;51.992;9.228;2023-04-28T02:24:36;5.00;;;4.00;;
21503;SDS011;10913;51.992;9.228;2023-04-28T02:27:03;4.80;;;4.00;;
21503;SDS011;10913;51.992;9.228;2023-04-28T02:29:29;5.00;;;4.10;;
21503;SDS011;10913;51.992;9.228;2023-04-28T02:31:54;5.40;;;4.00;;
21503;SDS011;10913;51.992;9.228;2023-04-28T02:34:20;5.18;;;4.30;;
21503;SDS011;10913;51.992;9.228;2023-04-28T02:36:45;6.22;;;4.50;;
21503;SDS011;10913;51.992;9.228;2023-04-28T02:39:12;5.65;;;4.55;;
21503;SDS011;10913;51.992;9.228;2023-04-28T02:41:37;8.52;;;5.03;;
21503;SDS011;10913;51.992;9.228;2023-04-28T02:44:03;5.85;;;4.45;;
21503;SDS011;10913;51.992;9.228;2023-04-28T02:46:28;7.50;;;4.95;;
21503;SDS011;10913;51.992;9.228;2023-04-28T02:48:53;4.72;;;3.97;;
21503;SDS011;10913;51.992;9.228;2023-04-28T02:51:19;5.28;;;4.28;;
21503;SDS011;10913;51.992;9.228;2023-04-28T02:53:44;5.97;;;4.50;;
21503;SDS011;10913;51.992;9.228;2023-04-28T02:56:10;6.00;;;4.45;;
21503;SDS011;10913;51.992;9.228;2023-04-28T02:58:36;6.13;;;4.80;;
21503;SDS011;10913;51.992;9.228;2023-04-28T03:01:01;5.10;;;4.60;;
21503;SDS011;10913;51.992;9.228;2023-04-28T03:03:26;6.30;;;4.60;;
21503;SDS011;10913;51.992;9.228;2023-04-28T03:05:52;5.45;;;4.43;;
21503;SDS011;10913;51.992;9.228;2023-04-28T03:08:17;6.35;;;4.63;;
21503;SDS011;10913;51.992;9.228;2023-04-28T03:10:44;5.90;;;4.93;;
21503;SDS011;10913;51.992;9.228;2023-04-28T03:13:10;6.57;;;4.70;;
21503;SDS011;10913;51.992;9.228;2023-04-28T03:15:35;6.15;;;4.75;;
21503;SDS011;10913;51.992;9.228;2023-04-28T03:18:01;5.93;;;4.70;;
21503;SDS011;10913;51.992;9.228;2023-04-28T03:20:26;5.43;;;4.68;;
21503;SDS011;10913;51.992;9.228;2023-04-28T03:22:51;6.28;;;4.63;;
21503;SDS011;10913;51.992;9.228;2023-04-28T03:25:17;5.43;;;4.47;;
21503;SDS011;10913;51.992;9.228;2023-04-28T03:27:42;6.47;;;4.63;;
21503;SDS011;10913;51.992;9.228;2023-04-28T03:30:08;5.60;;;5.00;;
21503;SDS011;10913;51.992;9.228;2023-04-28T03:32:34;5.85;;;5.00;;
21503;SDS011;10913;51.992;9.228;2023-04-28T03:35:00;7.82;;;5.70;;
21503;SDS011;10913;51.992;9.228;2023-04-28T03:37:25;7.28;;;4.97;;
21503;SDS011;10913;51.992;9.228;2023-04-28T03:39:51;5.72;;;4.72;;
21503;SDS011;10913;51.992;9.228;2023-04-28T03:42:17;5.43;;;4.60;;
21503;SDS011;10913;51.992;9.228;2023-04-28T03:44:42;6.35;;;4.97;;
21503;SDS011;10913;51.992;9.228;2023-04-28T03:47:07;5.50;;;4.95;;
21503;SDS011;10913;51.992;9.228;2023-04-28T03:49:33;7.15;;;5.13;;
21503;SDS011;10913;51.992;9.228;2023-04-28T03:51:58;8.23;;;5.75;;
21503;SDS011;10913;51.992;9.228;2023-04-28T03:54:23;6.68;;;5.13;;
21503;SDS011;10913;51.992;9.228;2023-04-28T03:56:49;7.82;;;5.32;;
21503;SDS011;10913;51.992;9.228;2023-04-28T03:59:14;6.43;;;5.57;;
21503;SDS011;10913;51.992;9.228;2023-04-28T04:01:39;6.07;;;5.32;;
21503;SDS011;10913;51.992;9.228;2023-04-28T04:04:05;8.15;;;5.40;;
21503;SDS011;10913;51.992;9.228;2023-04-28T04:06:30;7.57;;;5.88;;
21503;SDS011;10913;51.992;9.228;2023-04-28T04:08:56;8.10;;;5.20;;
21503;SDS011;10913;51.992;9.228;2023-04-28T04:11:22;6.88;;;5.55;;
21503;SDS011;10913;51.992;9.228;2023-04-28T04:13:47;7.47;;;6.07;;
21503;SDS011;10913;51.992;9.228;2023-04-28T04:16:12;8.77;;;5.57;;
21503;SDS011;10913;51.992;9.228;2023-04-28T04:18:39;6.72;;;5.93;;
21503;SDS011;10913;51.992;9.228;2023-04-28T04:21:05;8.32;;;6.38;;
21503;SDS011;10913;51.992;9.228;2023-04-28T04:23:30;8.32;;;5.82;;
21503;SDS011;10913;51.992;9.228;2023-04-28T04:25:56;7.90;;;5.60;;
21503;SDS011;10913;51.992;9.228;2023-04-28T04:28:21;6.80;;;5.90;;
21503;SDS011;10913;51.992;9.228;2023-04-28T04:30:46;8.00;;;5.85;;
21503;SDS011;10913;51.992;9.228;2023-04-28T04:33:12;6.20;;;5.60;;
21503;SDS011;10913;51.992;9.228;2023-04-28T04:35:37;6.60;;;5.20;;
21503;SDS011;10913;51.992;9.228;2023-04-28T04:38:03;8.65;;;6.05;;
21503;SDS011;10913;51.992;9.228;2023-04-28T04:40:28;6.93;;;5.72;;
21503;SDS011;10913;51.992;9.228;2023-04-28T04:42:54;5.72;;;5.07;;
21503;SDS011;10913;51.992;9.228;2023-04-28T04:45:19;7.90;;;5.28;;
21503;SDS011;10913;51.992;9.228;2023-04-28T04:47:45;7.22;;;6.03;;
21503;SDS011;10913;51.992;9.228;2023-04-28T04:50:11;6.85;;;5.72;;
21503;SDS011;10913;51.992;9.228;2023-04-28T04:52:36;6.47;;;5.57;;
21503;SDS011;10913;51.992;9.228;2023-04-28T04:55:02;7.68;;;5.95;;
21503;SDS011;10913;51.992;9.228;2023-04-28T04:57:28;6.47;;;5.82;;
21503;SDS011;10913;51.992;9.228;2023-04-28T04:59:53;8.23;;;6.22;;
21503;SDS011;10913;51.992;9.228;2023-04-28T05:02:19;6.60;;;5.90;;
21503;SDS011;10913;51.992;9.228;2023-04-28T05:04:44;7.80;;;5.95;;
21503;SDS011;10913;51.992;9.228;2023-04-28T05:07:10;6.68;;;5.97;;
21503;SDS011;10913;51.992;9.228;2023-04-28T05:09:35;7.57;;;6.00;;
21503;SDS011;10913;51.992;9.228;2023-04-28T05:12:00;7.90;;;5.82;;
21503;SDS011;10913;51.992;9.228;2023-04-28T05:14:26;6.80;;;6.10;;
21503;SDS011;10913;51.992;9.228;2023-04-28T05:16:51;12.55;;;6.40;;
21503;SDS011;10913;51.992;9.228;2023-04-28T05:19:17;9.15;;;6.45;;
21503;SDS011;10913;51.992;9.228;2023-04-28T05:21:42;8.23;;;6.65;;
21503;SDS011;10913;51.992;9.228;2023-04-28T05:24:07;7.78;;;5.63;;
21503;SDS011;10913;51.992;9.228;2023-04-28T05:26:34;8.00;;;5.95;;
21503;SDS011;10913;51.992;9.228;2023-04-28T05:29:00;6.78;;;5.50;;
21503;SDS011;10913;51.992;9.228;2023-04-28T05:31:25;9.13;;;5.80;;
21503;SDS011;10913;51.992;9.228;2023-04-28T05:33:50;7.07;;;5.50;;
21503;SDS011;10913;51.992;9.228;2023-04-28T05:36:16;8.10;;;6.07;;
21503;SDS011;10913;51.992;9.228;2023-04-28T05:38:42;8.00;;;6.30;;
21503;SDS011;10913;51.992;9.228;2023-04-28T05:41:08;15.88;;;10.75;;
21503;SDS011;10913;51.992;9.228;2023-04-28T05:43:33;17.95;;;14.07;;
21503;SDS011;10913;51.992;9.228;2023-04-28T05:45:59;12.90;;;10.65;;
21503;SDS011;10913;51.992;9.228;2023-04-28T05:48:24;11.93;;;8.15;;
21503;SDS011;10913;51.992;9.228;2023-04-28T05:50:50;7.53;;;6.60;;
21503;SDS011;10913;51.992;9.228;2023-04-28T05:53:15;7.47;;;6.57;;
21503;SDS011;10913;51.992;9.228;2023-04-28T05:55:40;8.45;;;6.78;;
21503;SDS011;10913;51.992;9.228;2023-04-28T05:58:06;8.50;;;6.60;;
21503;SDS011;10913;51.992;9.228;2023-04-28T06:00:32;8.05;;;6.63;;
21503;SDS011;10913;51.992;9.228;2023-04-28T06:02:58;8.40;;;6.47;;
21503;SDS011;10913;51.992;9.228;2023-04-28T06:05:24;7.70;;;6.53;;
21503;SDS011;10913;51.992;9.228;2023-04-28T06:07:50;8.77;;;5.88;;
21503;SDS011;10913;51.992;9.228;2023-04-28T06:10:15;8.15;;;6.82;;
21503;SDS011;10913;51.992;9.228;2023-04-28T06:12:41;9.55;;;7.60;;
21503;SDS011;10913;51.992;9.228;2023-04-28T06:15:07;8.35;;;7.22;;
21503;SDS011;10913;51.992;9.228;2023-04-28T06:17:32;9.10;;;7.28;;
21503;SDS011;10913;51.992;9.228;2023-04-28T06:19:58;8.68;;;7.18;;
21503;SDS011;10913;51.992;9.228;2023-04-28T06:22:26;8.60;;;7.03;;
21503;SDS011;10913;51.992;9.228;2023-04-28T06:24:52;8.55;;;6.75;;
21503;SDS011;10913;51.992;9.228;2023-04-28T06:27:17;8.40;;;7.18;;
21503;SDS011;10913;51.992;9.228;2023-04-28T06:29:43;9.60;;;8.00;;
21503;SDS011;10913;51.992;9.228;2023-04-28T06:32:08;9.07;;;7.05;;
21503;SDS011;10913;51.992;9.228;2023-04-28T06:34:34;10.93;;;6.68;;
21503;SDS011;10913;51.992;9.228;2023-04-28T06:37:01;9.93;;;8.15;;
21503;SDS011;10913;51.992;9.228;2023-04-28T06:39:27;13.88;;;8.30;;
21503;SDS011;10913;51.992;9.228;2023-04-28T06:41:52;12.10;;;8.52;;
21503;SDS011;10913;51.992;9.228;2023-04-28T06:44:17;11.80;;;8.15;;
21503;SDS011;10913;51.992;9.228;2023-04-28T06:46:43;12.23;;;8.70;;
21503;SDS011;10913;51.992;9.228;2023-04-28T06:49:08;12.02;;;8.50;;
21503;SDS011;10913;51.992;9.228;2023-04-28T06:51:34;11.65;;;7.65;;
21503;SDS011;10913;51.992;9.228;2023-04-28T06:53:59;11.02;;;8.25;;
21503;SDS011;10913;51.992;9.228;2023-04-28T06:56:24;11.30;;;8.10;;
21503;SDS011;10913;51.992;9.228;2023-04-28T06:58:50;10.60;;;7.80;;
21503;SDS011;10913;51.992;9.228;2023-04-28T07:01:16;12.30;;;8.85;;
21503;SDS011;10913;51.992;9.228;2023-04-28T07:03:42;11.38;;;7.60;;
21503;SDS011;10913;51.992;9.228;2023-04-28T07:06:07;12.18;;;8.50;;
21503;SDS011;10913;51.992;9.228;2023-04-28T07:08:33;10.90;;;7.65;;
21503;SDS011;10913;51.992;9.228;2023-04-28T07:10:59;11.77;;;8.38;;
21503;SDS011;10913;51.992;9.228;2023-04-28T07:13:28;12.23;;;8.35;;
21503;SDS011;10913;51.992;9.228;2023-04-28T07:15:57;11.57;;;7.45;;
21503;SDS011;10913;51.992;9.228;2023-04-28T07:18:22;9.40;;;8.25;;
21503;SDS011;10913;51.992;9.228;2023-04-28T07:20:48;11.65;;;8.13;;
21503;SDS011;10913;51.992;9.228;2023-04-28T07:23:14;12.10;;;8.75;;
21503;SDS011;10913;51.992;9.228;2023-04-28T07:25:39;13.05;;;8.82;;
21503;SDS011;10913;51.992;9.228;2023-04-28T07:28:05;11.80;;;8.88;;
21503;SDS011;10913;51.992;9.228;2023-04-28T07:30:31;12.43;;;8.90;;
21503;SDS011;10913;51.992;9.228;2023-04-28T07:32:56;10.48;;;7.90;;
21503;SDS011;10913;51.992;9.228;2023-04-28T07:35:22;14.35;;;8.77;;
21503;SDS011;10913;51.992;9.228;2023-04-28T07:37:48;11.95;;;8.35;;
21503;SDS011;10913;51.992;9.228;2023-04-28T07:40:13;11.07;;;8.18;;
21503;SDS011;10913;51.992;9.228;2023-04-28T07:42:39;9.65;;;8.23;;
21503;SDS011;10913;51.992;9.228;2023-04-28T07:45:05;9.88;;;7.68;;
21503;SDS011;10913;51.992;9.228;2023-04-28T07:47:30;10.60;;;8.05;;
21503;SDS011;10913;51.992;9.228;2023-04-28T07:49:56;9.25;;;6.90;;
21503;SDS011;10913;51.992;9.228;2023-04-28T07:52:23;7.70;;;6.68;;
21503;SDS011;10913;51.992;9.228;2023-04-28T07:54:48;9.98;;;7.18;;
21503;SDS011;10913;51.992;9.228;2023-04-28T07:57:13;10.38;;;7.63;;
21503;SDS011;10913;51.992;9.228;2023-04-28T07:59:39;10.73;;;8.07;;
21503;SDS011;10913;51.992;9.228;2023-04-28T08:02:04;10.43;;;7.65;;
21503;SDS011;10913;51.992;9.228;2023-04-28T08:04:30;8.98;;;7.40;;
21503;SDS011;10913;51.992;9.228;2023-04-28T08:06:57;10.68;;;8.48;;
21503;SDS011;10913;51.992;9.228;2023-04-28T08:09:23;10.82;;;7.55;;
21503;SDS011;10913;51.992;9.228;2023-04-28T08:11:48;11.98;;;8.13;;
21503;SDS011;10913;51.992;9.228;2023-04-28T08:14:14;10.07;;;8.52;;
21503;SDS011;10913;51.992;9.228;2023-04-28T08:16:39;11.93;;;8.52;;
21503;SDS011;10913;51.992;9.228;2023-04-28T08:19:05;11.02;;;8.32;;
21503;SDS011;10913;51.992;9.228;2023-04-28T08:21:31;10.40;;;7.95;;
21503;SDS011;10913;51.992;9.228;2023-04-28T08:23:56;11.13;;;8.40;;
21503;SDS011;10913;51.992;9.228;2023-04-28T08:26:22;11.25;;;8.00;;
21503;SDS011;10913;51.992;9.228;2023-04-28T08:28:48;8.75;;;7.68;;
21503;SDS011;10913;51.992;9.228;2023-04-28T08:31:14;10.15;;;7.78;;
21503;SDS011;10913;51.992;9.228;2023-04-28T08:33:40;10.50;;;8.30;;
21503;SDS011;10913;51.992;9.228;2023-04-28T08:36:08;9.80;;;7.03;;
21503;SDS011;10913;51.992;9.228;2023-04-28T08:38:35;11.65;;;7.90;;
21503;SDS011;10913;51.992;9.228;2023-04-28T08:41:02;9.00;;;7.82;;
21503;SDS011;10913;51.992;9.228;2023-04-28T08:43:28;14.13;;;8.30;;
21503;SDS011;10913;51.992;9.228;2023-04-28T08:45:57;10.10;;;7.90;;
21503;SDS011;10913;51.992;9.228;2023-04-28T08:48:24;11.15;;;7.97;;
21503;SDS011;10913;51.992;9.228;2023-04-28T08:50:52;13.32;;;8.60;;
21503;SDS011;10913;51.992;9.228;2023-04-28T08:53:23;11.35;;;8.02;;
21503;SDS011;10913;51.992;9.228;2023-04-28T08:55:50;10.15;;;7.55;;
21503;SDS011;10913;51.992;9.228;2023-04-28T08:58:18;8.48;;;7.18;;
21503;SDS011;10913;51.992;9.228;2023-04-28T09:00:44;10.68;;;7.55;;
21503;SDS011;10913;51.992;9.228;2023-04-28T09:03:10;9.80;;;8.15;;
21503;SDS011;10913;51.992;9.228;2023-04-28T09:05:36;10.02;;;7.40;;
21503;SDS011;10913;51.992;9.228;2023-04-28T09:08:01;10.35;;;8.07;;
21503;SDS011;10913;51.992;9.228;2023-04-28T09:10:27;12.98;;;8.10;;
21503;SDS011;10913;51.992;9.228;2023-04-28T09:12:53;11.65;;;8.50;;
21503;SDS011;10913;51.992;9.228;2023-04-28T09:15:36;10.07;;;8.23;;
21503;SDS011;10913;51.992;9.228;2023-04-28T09:18:03;9.77;;;8.45;;
21503;SDS011;10913;51.992;9.228;2023-04-28T09:20:30;8.77;;;7.22;;
21503;SDS011;10913;51.992;9.228;2023-04-28T09:23:16;9.95;;;8.30;;
21503;SDS011;10913;51.992;9.228;2023-04-28T09:28:23;11.10;;;7.72;;
21503;SDS011;10913;51.992;9.228;2023-04-28T09:30:48;10.35;;;8.60;;
21503;SDS011;10913;51.992;9.228;2023-04-28T09:33:14;14.07;;;8.25;;
21503;SDS011;10913;51.992;9.228;2023-04-28T09:35:43;9.10;;;7.90;;
21503;SDS011;10913;51.992;9.228;2023-04-28T09:38:10;9.70;;;7.82;;
21503;SDS011;10913;51.992;9.228;2023-04-28T09:40:53;9.40;;;7.50;;
21503;SDS011;10913;51.992;9.228;2023-04-28T09:43:28;10.13;;;7.95;;
21503;SDS011;10913;51.992;9.228;2023-04-28T09:45:58;11.38;;;7.90;;
21503;SDS011;10913;51.992;9.228;2023-04-28T09:48:35;9.35;;;7.75;;
21503;SDS011;10913;51.992;9.228;2023-04-28T09:51:03;10.00;;;7.10;;
21503;SDS011;10913;51.992;9.228;2023-04-28T09:53:30;9.35;;;7.20;;
21503;SDS011;10913;51.992;9.228;2023-04-28T09:55:56;9.50;;;6.95;;
21503;SDS011;10913;51.992;9.228;2023-04-28T09:58:24;7.88;;;7.07;;
21503;SDS011;10913;51.992;9.228;2023-04-28T10:00:51;8.07;;;6.88;;
21503;SDS011;10913;51.992;9.228;2023-04-28T10:03:22;9.77;;;7.03;;
21503;SDS011;10913;51.992;9.228;2023-04-28T10:05:49;8.45;;;7.10;;
21503;SDS011;10913;51.992;9.228;2023-04-28T10:08:17;9.32;;;7.38;;
21503;SDS011;10913;51.992;9.228;2023-04-28T10:10:47;8.88;;;7.97;;
21503;SDS011;10913;51.992;9.228;2023-04-28T10:13:16;10.40;;;8.80;;
21503;SDS011;10913;51.992;9.228;2023-04-28T10:15:43;11.18;;;9.20;;
21503;SDS011;10913;51.992;9.228;2023-04-28T10:18:10;12.13;;;8.63;;
21503;SDS011;10913;51.992;9.228;2023-04-28T10:20:36;10.32;;;8.68;;
21503;SDS011;10913;51.992;9.228;2023-04-28T10:23:14;11.13;;;8.90;;
21503;SDS011;10913;51.992;9.228;2023-04-28T10:26:00;9.40;;;8.15;;
21503;SDS011;10913;51.992;9.228;2023-04-28T10:28:28;10.45;;;8.55;;
21503;SDS011;10913;51.992;9.228;2023-04-28T10:31:15;12.23;;;8.30;;
21503;SDS011;10913;51.992;9.228;2023-04-28T10:33:42;11.57;;;9.13;;
21503;SDS011;10913;51.992;9.228;2023-04-28T10:36:08;10.38;;;9.25;;
21503;SDS011;10913;51.992;9.228;2023-04-28T10:38:35;11.52;;;8.50;;
21503;SDS011;10913;51.992;9.228;2023-04-28T10:41:32;11.05;;;8.45;;
21503;SDS011;10913;51.992;9.228;2023-04-28T10:43:58;10.82;;;8.30;;
21503;SDS011;10913;51.992;9.228;2023-04-28T10:46:24;12.57;;;8.93;;
21503;SDS011;10913;51.992;9.228;2023-04-28T10:58:34;12.43;;;9.90;;
21503;SDS011;10913;51.992;9.228;2023-04-28T11:06:35;14.73;;;10.05;;
21503;SDS011;10913;51.992;9.228;2023-04-28T11:17:28;13.90;;;10.90;;
21503;SDS011;10913;51.992;9.228;2023-04-28T11:19:44;13.20;;;11.05;;
21503;SDS011;10913;51.992;9.228;2023-04-28T11:24:39;11.98;;;10.48;;
21503;SDS011;10913;51.992;9.228;2023-04-28T11:27:04;11.52;;;10.32;;
21503;SDS011;10913;51.992;9.228;2023-04-28T11:31:59;12.05;;;9.77;;
21503;SDS011;10913;51.992;9.228;2023-04-28T11:34:24;11.90;;;10.63;;
21503;SDS011;10913;51.992;9.228;2023-04-28T11:36:50;11.50;;;9.75;;
21503;SDS011;10913;51.992;9.228;2023-04-28T11:39:15;12.63;;;10.85;;
21503;SDS011;10913;51.992;9.228;2023-04-28T11:41:49;13.55;;;10.45;;
21503;SDS011;10913;51.992;9.228;2023-04-28T11:44:15;11.80;;;10.32;;
21503;SDS011;10913;51.992;9.228;2023-04-28T11:46:45;11.05;;;9.95;;
21503;SDS011;10913;51.992;9.228;2023-04-28T11:49:19;13.27;;;10.15;;
21503;SDS011;10913;51.992;9.228;2023-04-28T11:51:53;13.00;;;10.18;;
21503;SDS011;10913;51.992;9.228;2023-04-28T11:54:23;12.48;;;9.82;;
21503;SDS011;10913;51.992;9.228;2023-04-28T11:56:50;14.32;;;10.05;;
21503;SDS011;10913;51.992;9.228;2023-04-28T11:59:17;14.32;;;11.05;;
21503;SDS011;10913;51.992;9.228;2023-04-28T12:09:37;14.23;;;11.27;;
21503;SDS011;10913;51.992;9.228;2023-04-28T12:12:27;14.82;;;12.25;;
21503;SDS011;10913;51.992;9.228;2023-04-28T12:14:57;13.23;;;10.05;;
21503;SDS011;10913;51.992;9.228;2023-04-28T12:17:29;13.30;;;11.10;;
21503;SDS011;10913;51.992;9.228;2023-04-28T12:19:55;12.48;;;10.80;;
21503;SDS011;10913;51.992;9.228;2023-04-28T12:22:22;13.05;;;11.18;;
21503;SDS011;10913;51.992;9.228;2023-04-28T12:25:07;12.63;;;11.00;;
21503;SDS011;10913;51.992;9.228;2023-04-28T12:27:35;12.05;;;10.30;;
21503;SDS011;10913;51.992;9.228;2023-04-28T12:30:03;11.45;;;10.20;;
21503;SDS011;10913;51.992;9.228;2023-04-28T12:32:48;15.20;;;10.32;;
21503;SDS011;10913;51.992;9.228;2023-04-28T12:35:14;17.50;;;11.32;;
21503;SDS011;10913;51.992;9.228;2023-04-28T12:37:43;12.25;;;10.23;;
21503;SDS011;10913;51.992;9.228;2023-04-28T12:40:08;11.77;;;10.48;;
21503;SDS011;10913;51.992;9.228;2023-04-28T12:42:34;13.93;;;10.45;;
21503;SDS011;10913;51.992;9.228;2023-04-28T12:45:00;13.10;;;10.50;;
21503;SDS011;10913;51.992;9.228;2023-04-28T12:47:26;12.18;;;10.40;;
21503;SDS011;10913;51.992;9.228;2023-04-28T12:49:51;11.45;;;10.35;;
21503;SDS011;10913;51.992;9.228;2023-04-28T12:52:20;12.13;;;10.77;;
21503;SDS011;10913;51.992;9.228;2023-04-28T12:54:46;12.05;;;10.65;;
21503;SDS011;10913;51.992;9.228;2023-04-28T12:57:13;12.35;;;10.27;;
21503;SDS011;10913;51.992;9.228;2023-04-28T12:59:39;14.77;;;10.52;;
21503;SDS011;10913;51.992;9.228;2023-04-28T13:02:05;12.95;;;10.57;;
21503;SDS011;10913;51.992;9.228;2023-04-28T13:04:31;12.20;;;9.90;;
21503;SDS011;10913;51.992;9.228;2023-04-28T13:06:57;13.88;;;10.73;;
21503;SDS011;10913;51.992;9.228;2023-04-28T13:09:23;12.57;;;10.13;;
21503;SDS011;10913;51.992;9.228;2023-04-28T13:11:49;12.02;;;10.30;;
21503;SDS011;10913;51.992;9.228;2023-04-28T13:14:17;13.50;;;10.93;;
21503;SDS011;10913;51.992;9.228;2023-04-28T13:16:43;11.63;;;10.43;;
21503;SDS011;10913;51.992;9.228;2023-04-28T13:19:09;12.48;;;9.10;;
21503;SDS011;10913;51.992;9.228;2023-04-28T13:21:37;12.25;;;10.15;;
21503;SDS011;10913;51.992;9.228;2023-04-28T13:24:03;10.98;;;9.77;;
21503;SDS011;10913;51.992;9.228;2023-04-28T13:26:29;12.63;;;11.32;;
21503;SDS011;10913;51.992;9.228;2023-04-28T13:28:55;12.77;;;10.73;;
21503;SDS011;10913;51.992;9.228;2023-04-28T13:31:21;11.60;;;10.30;;
21503;SDS011;10913;51.992;9.228;2023-04-28T13:33:46;13.35;;;10.90;;
21503;SDS011;10913;51.992;9.228;2023-04-28T13:36:12;12.48;;;9.88;;
21503;SDS011;10913;51.992;9.228;2023-04-28T13:38:37;12.25;;;8.90;;
21503;SDS011;10913;51.992;9.228;2023-04-28T13:41:03;10.48;;;9.35;;
21503;SDS011;10913;51.992;9.228;2023-04-28T13:43:29;12.40;;;10.07;;
21503;SDS011;10913;51.992;9.228;2023-04-28T13:45:55;11.32;;;8.82;;
21503;SDS011;10913;51.992;9.228;2023-04-28T13:48:20;12.65;;;10.10;;
21503;SDS011;10913;51.992;9.228;2023-04-28T13:50:46;13.80;;;9.98;;
21503;SDS011;10913;51.992;9.228;2023-04-28T13:53:11;12.32;;;10.40;;
21503;SDS011;10913;51.992;9.228;2023-04-28T13:55:37;14.45;;;10.77;;
21503;SDS011;10913;51.992;9.228;2023-04-28T13:58:02;11.57;;;10.38;;
21503;SDS011;10913;51.992;9.228;2023-04-28T14:00:30;13.20;;;10.77;;
21503;SDS011;10913;51.992;9.228;2023-04-28T14:02:56;13.68;;;10.65;;
21503;SDS011;10913;51.992;9.228;2023-04-28T14:05:22;11.30;;;9.82;;
21503;SDS011;10913;51.992;9.228;2023-04-28T14:07:48;11.23;;;10.10;;
21503;SDS011;10913;51.992;9.228;2023-04-28T14:10:14;12.25;;;10.95;;
21503;SDS011;10913;51.992;9.228;2023-04-28T14:12:39;12.43;;;10.23;;
21503;SDS011;10913;51.992;9.228;2023-04-28T14:15:05;13.27;;;10.98;;
21503;SDS011;10913;51.992;9.228;2023-04-28T14:17:31;13.48;;;11.00;;
21503;SDS011;10913;51.992;9.228;2023-04-28T14:19:58;9.57;;;8.60;;
21503;SDS011;10913;51.992;9.228;2023-04-28T14:22:25;10.85;;;8.88;;
21503;SDS011;10913;51.992;9.228;2023-04-28T14:24:50;13.13;;;11.73;;
21503;SDS011;10913;51.992;9.228;2023-04-28T14:27:15;11.30;;;10.10;;
21503;SDS011;10913;51.992;9.228;2023-04-28T14:29:41;11.95;;;10.50;;
21503;SDS011;10913;51.992;9.228;2023-04-28T14:32:06;11.82;;;10.50;;
21503;SDS011;10913;51.992;9.228;2023-04-28T14:34:32;11.90;;;10.10;;
21503;SDS011;10913;51.992;9.228;2023-04-28T14:36:57;12.88;;;10.65;;
21503;SDS011;10913;51.992;9.228;2023-04-28T14:39:22;10.82;;;9.73;;
21503;SDS011;10913;51.992;9.228;2023-04-28T14:41:48;12.35;;;10.77;;
21503;SDS011;10913;51.992;9.228;2023-04-28T14:44:13;11.43;;;10.32;;
21503;SDS011;10913;51.992;9.228;2023-04-28T14:46:39;11.93;;;10.07;;
21503;SDS011;10913;51.992;9.228;2023-04-28T14:49:04;13.15;;;11.27;;
21503;SDS011;10913;51.992;9.228;2023-04-28T14:51:30;14.15;;;11.23;;
21503;SDS011;10913;51.992;9.228;2023-04-28T14:53:55;14.27;;;11.13;;
21503;SDS011;10913;51.992;9.228;2023-04-28T14:56:21;14.07;;;11.90;;
21503;SDS011;10913;51.992;9.228;2023-04-28T14:58:46;14.30;;;11.85;;
21503;SDS011;10913;51.992;9.228;2023-04-28T15:01:13;12.43;;;10.75;;
21503;SDS011;10913;51.992;9.228;2023-04-28T15:03:38;13.27;;;11.88;;
21503;SDS011;10913;51.992;9.228;2023-04-28T15:06:04;13.20;;;11.43;;
21503;SDS011;10913;51.992;9.228;2023-04-28T15:08:29;12.48;;;10.55;;
21503;SDS011;10913;51.992;9.228;2023-04-28T15:10:56;13.00;;;11.32;;
21503;SDS011;10913;51.992;9.228;2023-04-28T15:13:21;13.93;;;12.00;;